Time;durP1;ratioP1;P1;durP2;ratioP2;P2;SDS_P1;SDS_P2;PMS_P1;PMS_P2;Temp;Humidity;BMP_temperature;BMP_pressure;BME280_temperature;BME280_humidity;BME280_pressure;Samples;Min_cycle;Max_cycle;Signal;HPM_P1;HPM_P2
2022/07/09 00:01:24;;;;;;;3.23;2.70;;;16.10;99.90;;;;;;5041318;28;20483;-57
2022/07/09 00:03:52;;;;;;;7.23;2.10;;;16.20;99.90;;;;;;5041635;28;20563;-55
2022/07/09 00:06:19;;;;;;;3.33;2.20;;;16.30;99.90;;;;;;5041250;28;20488;-55
2022/07/09 00:08:47;;;;;;;4.83;2.33;;;16.30;99.90;;;;;;5041122;28;20486;-57
2022/07/09 00:11:14;;;;;;;1.90;1.80;;;16.20;99.90;;;;;;5041099;28;20781;-56
2022/07/09 00:13:41;;;;;;;4.70;2.60;;;16.10;99.90;;;;;;5041490;28;20664;-55
2022/07/09 00:16:08;;;;;;;4.90;3.97;;;16.10;99.90;;;;;;5041526;28;20436;-56
2022/07/09 00:18:36;;;;;;;4.80;2.53;;;16.20;99.90;;;;;;5042055;28;20445;-56
2022/07/09 00:21:04;;;;;;;12.23;3.20;;;16.30;99.90;;;;;;5041732;28;20467;-56
2022/07/09 00:23:31;;;;;;;3.10;2.20;;;16.40;99.90;;;;;;5041705;28;20476;-57
2022/07/09 00:25:58;;;;;;;2.13;2.03;;;16.40;99.90;;;;;;5041387;28;20607;-55
2022/07/09 00:28:25;;;;;;;2.30;2.10;;;16.50;99.90;;;;;;5040846;28;20441;-54
2022/07/09 00:30:53;;;;;;;4.57;2.83;;;16.50;99.90;;;;;;5041716;28;20452;-56
2022/07/09 00:33:20;;;;;;;2.53;2.00;;;16.40;99.90;;;;;;5040864;28;20439;-53
2022/07/09 00:35:47;;;;;;;9.83;2.97;;;16.50;99.90;;;;;;5041185;28;20455;-55
2022/07/09 00:38:15;;;;;;;2.50;2.30;;;16.50;99.90;;;;;;5041197;28;20478;-56
2022/07/09 00:40:42;;;;;;;3.07;2.17;;;16.60;99.90;;;;;;5043207;28;20807;-56
2022/07/09 00:43:19;;;;;;;3.83;2.50;;;16.60;99.90;;;;;;5042155;28;20863;-55
2022/07/09 00:45:47;;;;;;;4.90;2.53;;;16.60;99.90;;;;;;5040992;28;20470;-54
2022/07/09 00:48:15;;;;;;;3.37;2.10;;;16.70;99.90;;;;;;5040579;28;20434;-54
2022/07/09 00:50:43;;;;;;;4.93;2.67;;;16.60;99.90;;;;;;5041011;28;20456;-57
2022/07/09 00:53:14;;;;;;;3.17;2.13;;;16.80;99.90;;;;;;5040727;28;20507;-52
2022/07/09 00:55:44;;;;;;;3.13;2.40;;;16.80;99.90;;;;;;5040599;28;20465;-57
2022/07/09 00:58:14;;;;;;;5.43;2.30;;;16.80;99.90;;;;;;5040818;28;20436;-57
2022/07/09 01:00:43;;;;;;;2.23;2.03;;;16.60;99.90;;;;;;5041081;28;20825;-57
2022/07/09 01:03:11;;;;;;;4.43;2.63;;;16.40;99.90;;;;;;5040433;28;20497;-56
2022/07/09 01:05:38;;;;;;;2.60;2.40;;;16.20;99.90;;;;;;5040627;28;20470;-58
2022/07/09 01:08:07;;;;;;;2.90;2.57;;;16.00;99.90;;;;;;5040325;28;20417;-57
2022/07/09 01:10:35;;;;;;;4.03;2.20;;;15.90;99.90;;;;;;5040449;28;20451;-55
2022/07/09 01:13:04;;;;;;;2.80;2.60;;;15.80;99.90;;;;;;5039797;28;20441;-56
2022/07/09 01:15:32;;;;;;;3.00;2.60;;;15.90;99.90;;;;;;5040243;28;20483;-56
2022/07/09 01:18:00;;;;;;;3.13;2.83;;;15.90;99.90;;;;;;5040405;28;20439;-55
2022/07/09 01:20:31;;;;;;;4.70;2.33;;;15.90;99.90;;;;;;5039746;28;20642;-56
2022/07/09 01:22:59;;;;;;;6.70;2.83;;;15.90;99.90;;;;;;5040912;28;20841;-55
2022/07/09 01:25:38;;;;;;;4.15;2.75;;;15.90;99.90;;;;;;5040001;28;20541;-56
2022/07/09 01:28:08;;;;;;;5.30;2.33;;;15.70;99.90;;;;;;5040469;28;20198;-55
2022/07/09 01:30:37;;;;;;;3.88;2.58;;;15.80;99.90;;;;;;5040479;28;20529;-56
2022/07/09 01:33:05;;;;;;;9.23;2.53;;;15.90;99.90;;;;;;5040941;28;20209;-56
2022/07/09 01:35:32;;;;;;;2.55;2.35;;;16.00;99.90;;;;;;5040477;28;20202;-53
2022/07/09 01:38:00;;;;;;;4.25;3.60;;;16.10;99.90;;;;;;5041300;28;20255;-56
2022/07/09 01:40:27;;;;;;;2.70;2.50;;;16.20;99.90;;;;;;5040223;28;20201;-56
2022/07/09 01:42:54;;;;;;;3.03;2.83;;;16.40;99.90;;;;;;5040673;28;20203;-56
2022/07/09 01:45:21;;;;;;;4.50;2.40;;;16.40;99.90;;;;;;5039883;28;20197;-56
2022/07/09 01:47:49;;;;;;;3.90;2.00;;;16.40;99.90;;;;;;5040526;28;20205;-57
2022/07/09 01:50:16;;;;;;;3.28;2.70;;;16.40;99.90;;;;;;5040317;28;20366;-55
2022/07/09 01:52:43;;;;;;;4.95;3.00;;;16.50;99.90;;;;;;5040772;28;20241;-57
2022/07/09 01:55:11;;;;;;;5.70;3.10;;;16.50;99.90;;;;;;5039389;28;20212;-54
2022/07/09 01:57:38;;;;;;;6.78;2.80;;;16.70;99.90;;;;;;5040619;28;20205;-55
2022/07/09 02:00:06;;;;;;;2.57;2.37;;;16.70;99.90;;;;;;5040297;28;20204;-56
2022/07/09 02:02:33;;;;;;;4.32;3.05;;;16.80;99.90;;;;;;5040409;28;20769;-56
2022/07/09 02:05:01;;;;;;;4.27;2.67;;;16.70;99.90;;;;;;5040422;28;20229;-56
2022/07/09 02:07:28;;;;;;;3.33;2.50;;;16.80;99.90;;;;;;5040890;28;20440;-57
2022/07/09 02:09:55;;;;;;;7.57;2.87;;;16.90;99.90;;;;;;5039870;28;20437;-55
2022/07/09 02:12:22;;;;;;;5.70;3.30;;;16.90;99.90;;;;;;5038924;28;20473;-57
2022/07/09 02:14:50;;;;;;;4.03;2.50;;;16.90;99.90;;;;;;5040238;28;20439;-56
2022/07/09 02:17:17;;;;;;;7.97;3.97;;;17.00;99.90;;;;;;5039896;28;20435;-53
2022/07/09 02:19:44;;;;;;;3.63;2.60;;;17.00;99.90;;;;;;5040266;28;20442;-55
2022/07/09 02:22:11;;;;;;;5.07;2.50;;;17.00;99.90;;;;;;5040165;28;20459;-55
2022/07/09 02:24:38;;;;;;;4.93;3.17;;;17.10;99.90;;;;;;5040044;28;20517;-56
2022/07/09 02:27:05;;;;;;;4.20;2.73;;;17.00;99.90;;;;;;5039979;28;20653;-56
2022/07/09 02:29:33;;;;;;;3.60;2.60;;;16.90;99.90;;;;;;5040153;28;20462;-56
2022/07/09 02:32:00;;;;;;;11.57;3.70;;;17.00;99.90;;;;;;5041952;28;20458;-56
2022/07/09 02:34:27;;;;;;;3.43;2.43;;;17.00;99.90;;;;;;5044207;28;20450;-55
2022/07/09 02:36:54;;;;;;;2.70;2.30;;;16.90;99.90;;;;;;5043859;28;20878;-54
2022/07/09 02:39:22;;;;;;;4.77;2.27;;;16.90;99.90;;;;;;5044014;28;20445;-57
2022/07/09 02:41:50;;;;;;;3.63;3.27;;;16.90;99.90;;;;;;5043672;28;20468;-54
2022/07/09 02:44:18;;;;;;;2.43;2.23;;;16.80;99.90;;;;;;5043961;28;20467;-56
2022/07/09 02:46:45;;;;;;;3.00;2.80;;;16.70;99.90;;;;;;5043179;28;20514;-56
2022/07/09 02:49:13;;;;;;;5.53;3.13;;;16.70;99.90;;;;;;5044086;28;20440;-56
2022/07/09 02:51:40;;;;;;;4.37;2.37;;;16.50;99.90;;;;;;5043178;28;20644;-53
2022/07/09 02:54:07;;;;;;;2.53;2.33;;;16.40;99.90;;;;;;5043814;28;20456;-53
2022/07/09 02:56:35;;;;;;;2.77;2.57;;;16.50;99.90;;;;;;5043392;28;20463;-55
2022/07/09 02:59:02;;;;;;;2.70;2.20;;;16.40;99.90;;;;;;5043620;28;20443;-54
2022/07/09 03:01:30;;;;;;;4.87;2.70;;;16.40;99.90;;;;;;5043856;28;20460;-54
2022/07/09 03:03:57;;;;;;;2.30;2.10;;;16.40;99.90;;;;;;5044013;28;20531;-56
2022/07/09 03:06:25;;;;;;;2.07;1.90;;;16.50;99.90;;;;;;5043801;28;20750;-56
2022/07/09 03:08:52;;;;;;;2.20;2.00;;;16.60;99.90;;;;;;5043736;28;20758;-55
2022/07/09 03:11:19;;;;;;;2.70;2.40;;;16.60;99.90;;;;;;5043384;28;20678;-55
2022/07/09 03:13:46;;;;;;;3.77;2.63;;;16.30;99.90;;;;;;5043256;28;20440;-54
2022/07/09 03:16:14;;;;;;;2.57;2.33;;;16.20;99.90;;;;;;5043816;28;20414;-57
2022/07/09 03:18:41;;;;;;;2.50;2.30;;;16.20;99.90;;;;;;5043407;28;20530;-57
2022/07/09 03:21:11;;;;;;;7.10;2.70;;;16.20;99.90;;;;;;5043446;28;20517;-56
2022/07/09 03:23:39;;;;;;;2.95;2.45;;;16.20;99.90;;;;;;5043066;28;20222;-54
2022/07/09 03:26:07;;;;;;;2.70;2.17;;;16.20;99.90;;;;;;5045789;28;20379;-56
2022/07/09 03:28:34;;;;;;;3.20;2.20;;;16.10;99.90;;;;;;5044051;28;20437;-54
2022/07/09 03:31:02;;;;;;;14.33;3.17;;;16.00;99.90;;;;;;5043663;28;20227;-55
2022/07/09 03:33:29;;;;;;;5.47;2.72;;;16.10;99.90;;;;;;5043261;28;20470;-55
2022/07/09 03:35:58;;;;;;;3.50;2.90;;;16.20;99.90;;;;;;5043363;28;20207;-56
2022/07/09 03:38:25;;;;;;;2.30;2.10;;;16.40;99.90;;;;;;5042695;28;20435;-56
2022/07/09 03:40:52;;;;;;;4.10;3.20;;;16.30;99.90;;;;;;5064255;22;20514;-50
2022/07/09 03:43:19;;;;;;;5.30;2.67;;;16.60;99.90;;;;;;5041423;28;20478;-49
2022/07/09 03:45:47;;;;;;;4.03;2.80;;;16.90;99.90;;;;;;5041926;28;20678;-49
2022/07/09 03:48:14;;;;;;;3.00;2.70;;;17.10;99.90;;;;;;5042443;28;20735;-52
2022/07/09 03:50:41;;;;;;;5.87;3.33;;;17.40;99.90;;;;;;5042082;28;20512;-49
2022/07/09 03:53:09;;;;;;;4.90;2.93;;;17.60;99.90;;;;;;5041570;28;20806;-50
2022/07/09 03:55:36;;;;;;;4.80;2.50;;;17.70;99.90;;;;;;5041791;28;20440;-50
2022/07/09 03:58:03;;;;;;;4.77;3.30;;;17.70;99.90;;;;;;5041756;28;20435;-51
2022/07/09 04:00:31;;;;;;;3.53;2.67;;;17.60;99.90;;;;;;5041807;28;20619;-51
2022/07/09 04:02:58;;;;;;;2.30;2.20;;;17.50;99.90;;;;;;5041586;28;20804;-54
2022/07/09 04:05:25;;;;;;;5.90;2.37;;;17.40;99.90;;;;;;5041914;28;20466;-53
2022/07/09 04:07:52;;;;;;;2.63;2.43;;;17.40;99.90;;;;;;5042137;28;20425;-51
2022/07/09 04:10:20;;;;;;;2.30;2.20;;;17.30;99.90;;;;;;5041445;28;20437;-51
2022/07/09 04:12:48;;;;;;;3.10;2.47;;;17.30;99.90;;;;;;5041562;28;20430;-52
2022/07/09 04:15:15;;;;;;;4.80;2.80;;;17.20;99.90;;;;;;5041206;28;20435;-51
2022/07/09 04:17:42;;;;;;;3.00;2.43;;;17.00;99.90;;;;;;5041724;28;20443;-50
2022/07/09 04:20:10;;;;;;;4.10;3.07;;;17.00;99.90;;;;;;5041265;28;20444;-49
2022/07/09 04:22:37;;;;;;;3.23;2.50;;;17.00;99.90;;;;;;5041132;28;20472;-51
2022/07/09 04:25:08;;;;;;;3.80;3.17;;;16.90;99.90;;;;;;5040711;28;20494;-52
2022/07/09 04:27:38;;;;;;;2.87;2.63;;;17.00;99.90;;;;;;5041431;28;20429;-53
2022/07/09 04:30:08;;;;;;;5.60;3.10;;;17.10;99.90;;;;;;5041080;28;20703;-53
2022/07/09 04:32:37;;;;;;;3.13;2.33;;;17.20;99.90;;;;;;5040878;28;20807;-52
2022/07/09 04:35:04;;;;;;;4.90;2.63;;;17.40;99.90;;;;;;5023892;28;20431;-46
2022/07/09 04:37:32;;;;;;;2.60;2.40;;;17.60;99.90;;;;;;5041548;28;20442;-47
2022/07/09 04:39:59;;;;;;;9.40;2.87;;;17.80;99.90;;;;;;5041486;28;20434;-50
2022/07/09 04:42:26;;;;;;;3.43;2.97;;;17.90;99.90;;;;;;5041570;28;20513;-49
2022/07/09 04:44:53;;;;;;;3.27;2.93;;;17.70;99.90;;;;;;5041185;28;20476;-48
2022/07/09 04:47:21;;;;;;;3.33;2.90;;;17.70;99.90;;;;;;5041292;28;20435;-49
2022/07/09 04:49:48;;;;;;;3.37;3.07;;;17.80;99.90;;;;;;5041364;28;20436;-48
2022/07/09 04:52:19;;;;;;;3.57;2.70;;;17.80;99.90;;;;;;5040966;28;20648;-50
2022/07/09 04:54:47;;;;;;;3.40;2.47;;;17.80;99.90;;;;;;5040624;28;20425;-50
2022/07/09 04:57:14;;;;;;;3.87;2.53;;;17.80;99.90;;;;;;5040996;28;20499;-52
2022/07/09 04:59:41;;;;;;;3.80;2.30;;;17.80;99.90;;;;;;5040811;28;20695;-49
2022/07/09 05:02:09;;;;;;;6.30;2.87;;;17.80;99.90;;;;;;5040314;28;20453;-53
2022/07/09 05:04:36;;;;;;;5.13;2.10;;;17.80;99.90;;;;;;5041054;28;20490;-51
2022/07/09 05:07:05;;;;;;;3.07;2.87;;;17.80;99.90;;;;;;5040704;28;20435;-49
2022/07/09 05:09:32;;;;;;;5.17;2.70;;;17.80;99.90;;;;;;5041301;28;20442;-50
2022/07/09 05:11:59;;;;;;;5.20;3.60;;;17.90;99.90;;;;;;5040899;28;20656;-48
2022/07/09 05:14:26;;;;;;;3.77;3.17;;;18.00;99.90;;;;;;5041083;28;20450;-51
2022/07/09 05:16:54;;;;;;;5.40;2.80;;;18.20;99.90;;;;;;5040596;28;20433;-52
2022/07/09 05:19:22;;;;;;;3.43;2.60;;;18.40;99.90;;;;;;5040869;28;20436;-51
2022/07/09 05:21:49;;;;;;;4.40;3.33;;;18.50;99.90;;;;;;5040588;28;20485;-54
2022/07/09 05:24:16;;;;;;;3.77;3.03;;;18.60;99.90;;;;;;5040535;28;20472;-53
2022/07/09 05:26:43;;;;;;;2.53;2.33;;;18.60;99.90;;;;;;5039896;28;20503;-52
2022/07/09 05:29:10;;;;;;;4.10;3.03;;;18.60;99.90;;;;;;5040319;28;20433;-47
2022/07/09 05:31:38;;;;;;;3.33;2.90;;;18.50;99.90;;;;;;5040324;28;20453;-49
2022/07/09 05:34:06;;;;;;;3.03;2.73;;;18.40;99.90;;;;;;5040304;28;20500;-51
2022/07/09 05:36:33;;;;;;;2.73;2.50;;;18.30;99.90;;;;;;5040041;28;20794;-46
2022/07/09 05:39:01;;;;;;;2.87;2.67;;;18.20;99.90;;;;;;5040127;28;20440;-48
2022/07/09 05:41:28;;;;;;;2.53;2.33;;;18.30;99.90;;;;;;5039808;28;20463;-47
2022/07/09 05:43:55;;;;;;;4.20;2.90;;;18.50;99.90;;;;;;5039839;28;20791;-48
2022/07/09 05:46:22;;;;;;;3.13;2.93;;;18.60;99.90;;;;;;5039928;28;20433;-49
2022/07/09 05:48:50;;;;;;;3.63;3.33;;;18.70;99.90;;;;;;5040131;28;20436;-52
2022/07/09 05:51:17;;;;;;;4.20;3.33;;;18.80;99.90;;;;;;5039608;28;20840;-51
2022/07/09 05:53:45;;;;;;;3.97;3.00;;;18.90;99.90;;;;;;5039928;28;20430;-49
2022/07/09 05:56:12;;;;;;;2.93;2.60;;;19.00;99.90;;;;;;5039858;28;20425;-46
2022/07/09 05:58:40;;;;;;;3.40;2.43;;;19.10;99.90;;;;;;5039703;28;20784;-51
2022/07/09 06:01:07;;;;;;;9.23;3.73;;;19.10;99.90;;;;;;5039678;28;20750;-50
2022/07/09 06:03:34;;;;;;;14.90;2.80;;;19.20;99.90;;;;;;5039394;28;20430;-50
2022/07/09 06:06:04;;;;;;;4.93;2.87;;;19.30;99.90;;;;;;5039445;28;20511;-49
2022/07/09 06:08:36;;;;;;;2.47;2.37;;;19.10;99.90;;;;;;5039101;28;20428;-48
2022/07/09 06:11:04;;;;;;;3.90;3.53;;;19.30;99.90;;;;;;5039794;28;20453;-54
2022/07/09 06:13:31;;;;;;;3.90;3.33;;;19.40;99.90;;;;;;5040035;28;20676;-53
2022/07/09 06:15:59;;;;;;;4.23;2.60;;;19.60;99.90;;;;;;5039760;28;20437;-51
2022/07/09 06:18:27;;;;;;;4.40;2.20;;;19.80;99.90;;;;;;5039387;28;20430;-52
2022/07/09 06:20:54;;;;;;;2.17;1.90;;;19.90;99.90;;;;;;5039500;28;20670;-53
2022/07/09 06:23:21;;;;;;;5.60;1.97;;;20.00;99.90;;;;;;5039226;28;20594;-48
2022/07/09 06:25:48;;;;;;;3.67;2.53;;;20.40;99.90;;;;;;5039461;28;20524;-55
2022/07/09 06:28:16;;;;;;;4.13;2.30;;;20.80;99.90;;;;;;5039536;28;20604;-52
2022/07/09 06:30:43;;;;;;;3.60;2.17;;;21.10;99.90;;;;;;5039663;28;20436;-51
2022/07/09 06:33:11;;;;;;;2.27;2.07;;;21.60;99.90;;;;;;5022520;28;20412;-48
2022/07/09 06:35:38;;;;;;;3.77;2.00;;;22.00;99.90;;;;;;5040219;28;20422;-49
2022/07/09 06:38:06;;;;;;;2.30;2.20;;;21.80;99.90;;;;;;5039811;28;20766;-48
2022/07/09 06:40:34;;;;;;;3.40;1.83;;;21.70;99.90;;;;;;5039697;28;20457;-52
2022/07/09 06:43:01;;;;;;;2.40;2.20;;;21.70;99.90;;;;;;5040141;28;20466;-54
2022/07/09 06:45:28;;;;;;;4.53;1.63;;;22.00;99.90;;;;;;5039924;28;20702;-51
2022/07/09 06:47:55;;;;;;;2.50;1.63;;;22.40;99.90;;;;;;5039932;28;20434;-48
2022/07/09 06:50:22;;;;;;;10.23;3.40;;;22.70;99.90;;;;;;5041022;28;20414;-53
2022/07/09 06:52:50;;;;;;;2.67;2.47;;;23.30;99.90;;;;;;5043314;28;20430;-52
2022/07/09 06:55:17;;;;;;;3.33;2.60;;;23.70;99.90;;;;;;5042373;28;20411;-54
2022/07/09 06:57:44;;;;;;;4.50;1.90;;;24.10;99.90;;;;;;5042081;28;20437;-50
2022/07/09 07:00:12;;;;;;;1.90;1.80;;;24.70;99.90;;;;;;5039306;28;20658;-53
2022/07/09 07:02:39;;;;;;;3.70;1.93;;;25.40;99.90;;;;;;5040010;28;20432;-52
2022/07/09 07:05:07;;;;;;;2.40;1.67;;;24.80;99.90;;;;;;5038943;28;20798;-50
2022/07/09 07:07:40;;;;;;;3.40;1.73;;;24.30;99.90;;;;;;5039264;28;20411;-50
2022/07/09 07:10:08;;;;;;;2.00;1.80;;;24.80;99.90;;;;;;5038800;28;20529;-52
2022/07/09 07:12:35;;;;;;;2.57;2.37;;;24.90;99.90;;;;;;5039224;28;20435;-50
2022/07/09 07:15:03;;;;;;;5.67;2.40;;;24.20;99.90;;;;;;5038849;28;20409;-48
2022/07/09 07:17:31;;;;;;;1.80;1.70;;;24.30;99.90;;;;;;5040329;28;20758;-50
2022/07/09 07:19:58;;;;;;;1.57;1.27;;;25.20;99.90;;;;;;5042428;28;20455;-48
2022/07/09 07:22:25;;;;;;;3.13;2.37;;;25.80;99.90;;;;;;5042918;28;20516;-50
2022/07/09 07:24:53;;;;;;;1.37;1.27;;;25.60;99.90;;;;;;5042528;28;20555;-50
2022/07/09 07:27:20;;;;;;;1.97;1.77;;;25.50;99.90;;;;;;5042820;28;20400;-47
2022/07/09 07:29:47;;;;;;;2.37;1.57;;;25.30;99.90;;;;;;5042020;28;20452;-52
2022/07/09 07:32:15;;;;;;;2.40;1.80;;;25.90;99.90;;;;;;5042673;28;20458;-52
2022/07/09 07:34:42;;;;;;;1.83;1.67;;;26.20;99.90;;;;;;5042638;28;20408;-51
2022/07/09 07:37:09;;;;;;;2.10;1.53;;;27.10;99.90;;;;;;5042277;28;20413;-50
2022/07/09 07:39:37;;;;;;;1.77;1.67;;;29.70;99.90;;;;;;5042586;28;20414;-53
2022/07/09 07:42:07;;;;;;;1.83;1.47;;;30.70;98.10;;;;;;5042288;28;20807;-49
2022/07/09 07:44:34;;;;;;;1.47;0.90;;;29.00;98.90;;;;;;5042153;28;20451;-50
2022/07/09 07:47:01;;;;;;;1.30;1.20;;;28.90;99.10;;;;;;5042818;28;20624;-49
2022/07/09 07:49:28;;;;;;;1.27;1.17;;;30.70;96.10;;;;;;5042127;28;20429;-49
2022/07/09 07:51:55;;;;;;;2.33;1.73;;;31.70;92.70;;;;;;5041905;28;20666;-53
2022/07/09 07:54:23;;;;;;;2.23;1.60;;;29.70;94.30;;;;;;5042474;28;20764;-51
2022/07/09 07:56:51;;;;;;;2.13;1.70;;;30.00;94.90;;;;;;5042145;28;20441;-46
2022/07/09 07:59:18;;;;;;;4.67;1.80;;;28.80;95.00;;;;;;5041850;28;20491;-53
2022/07/09 08:01:45;;;;;;;3.00;1.53;;;27.40;97.10;;;;;;5042235;28;20792;-54
2022/07/09 08:04:12;;;;;;;6.00;2.30;;;28.10;96.10;;;;;;5041686;28;20414;-48
2022/07/09 08:06:40;;;;;;;4.57;1.57;;;27.40;96.60;;;;;;5041434;28;20406;-51
2022/07/09 08:09:07;;;;;;;2.23;1.70;;;28.10;96.20;;;;;;5042000;28;20500;-51
2022/07/09 08:11:35;;;;;;;3.43;1.83;;;29.30;94.10;;;;;;5041548;28;20453;-54
2022/07/09 08:14:02;;;;;;;1.67;1.57;;;30.90;91.20;;;;;;5041690;28;20492;-51
2022/07/09 08:16:30;;;;;;;1.63;1.40;;;31.30;88.80;;;;;;5041777;28;20491;-48
2022/07/09 08:18:57;;;;;;;2.13;1.97;;;31.90;83.70;;;;;;5041351;28;20477;-54
2022/07/09 08:21:25;;;;;;;1.97;1.10;;;31.60;84.30;;;;;;5041366;28;20776;-50
2022/07/09 08:23:53;;;;;;;2.50;1.80;;;30.30;87.70;;;;;;5041063;28;20434;-48
2022/07/09 08:26:26;;;;;;;1.90;1.37;;;29.10;90.10;;;;;;5023638;28;20486;-51
2022/07/09 08:28:53;;;;;;;1.87;1.60;;;28.60;90.50;;;;;;5023872;28;20586;-51
2022/07/09 08:31:21;;;;;;;3.00;1.57;;;28.00;91.60;;;;;;5041512;28;20666;-52
2022/07/09 08:33:49;;;;;;;3.40;2.00;;;26.70;94.00;;;;;;5041904;28;20408;-53
2022/07/09 08:36:17;;;;;;;2.17;1.97;;;27.80;92.00;;;;;;5041563;28;20429;-51
2022/07/09 08:38:44;;;;;;;2.07;1.87;;;29.70;88.00;;;;;;5041220;28;20458;-51
2022/07/09 08:41:12;;;;;;;3.23;1.67;;;31.50;82.70;;;;;;5041220;28;20475;-52
2022/07/09 08:43:39;;;;;;;2.90;2.10;;;33.10;78.00;;;;;;5041313;28;20490;-50
2022/07/09 08:46:07;;;;;;;1.90;1.57;;;33.90;73.80;;;;;;5040900;28;20476;-51
2022/07/09 08:48:36;;;;;;;2.33;2.13;;;33.70;73.30;;;;;;5040810;28;20433;-49
2022/07/09 08:51:05;;;;;;;3.13;1.63;;;34.60;70.20;;;;;;5041079;28;20436;-49
2022/07/09 08:53:43;;;;;;;1.70;1.60;;;35.60;67.40;;;;;;5041271;28;20588;-55
2022/07/09 08:56:11;;;;;;;1.90;1.70;;;36.20;62.50;;;;;;5041148;28;20803;-51
2022/07/09 08:58:39;;;;;;;1.77;1.67;;;35.30;59.90;;;;;;5040638;28;20430;-51
2022/07/09 09:01:07;;;;;;;1.93;1.83;;;35.10;60.10;;;;;;5040364;28;20453;-51
2022/07/09 09:03:35;;;;;;;1.83;1.70;;;34.80;59.60;;;;;;5040279;28;20434;-53
2022/07/09 09:06:08;;;;;;;1.70;1.50;;;34.90;58.60;;;;;;5040210;28;20470;-52
2022/07/09 09:08:43;;;;;;;2.40;1.87;;;33.90;59.80;;;;;;5040561;28;20457;-52
2022/07/09 09:11:20;;;;;;;2.20;2.00;;;33.60;61.60;;;;;;5040862;28;20496;-48
2022/07/09 09:13:48;;;;;;;2.30;1.90;;;32.30;65.20;;;;;;5039997;28;20441;-51
2022/07/09 09:16:18;;;;;;;1.97;1.67;;;32.80;64.80;;;;;;5040326;28;20429;-53
2022/07/09 09:18:48;;;;;;;1.50;1.40;;;34.50;60.40;;;;;;5040456;28;20548;-54
2022/07/09 09:21:19;;;;;;;2.33;1.53;;;35.40;59.20;;;;;;5040468;28;20533;-52
2022/07/09 09:23:52;;;;;;;1.63;1.43;;;35.80;57.10;;;;;;5040478;28;20460;-53
2022/07/09 09:26:22;;;;;;;1.93;1.63;;;35.40;57.00;;;;;;5040087;28;20512;-50
2022/07/09 09:28:59;;;;;;;4.37;1.90;;;35.00;57.50;;;;;;5040088;28;20430;-48
2022/07/09 09:31:36;;;;;;;7.40;1.80;;;34.40;58.20;;;;;;5040043;28;20452;-53
2022/07/09 09:34:11;;;;;;;1.57;1.47;;;32.90;60.10;;;;;;5040087;28;20953;-50
2022/07/09 09:36:43;;;;;;;2.37;2.20;;;32.40;61.10;;;;;;5040394;28;20444;-54
2022/07/09 09:39:16;;;;;;;3.53;1.90;;;32.00;60.70;;;;;;5040052;28;20605;-51
2022/07/09 09:41:45;;;;;;;1.50;1.40;;;31.10;64.20;;;;;;5061199;22;20457;-56
2022/07/09 09:44:19;;;;;;;1.47;1.30;;;29.60;67.90;;;;;;5039665;28;20425;-58
2022/07/09 09:46:47;;;;;;;2.13;1.67;;;28.20;72.80;;;;;;5039975;28;20473;-59
2022/07/09 09:49:15;;;;;;;2.07;1.87;;;27.40;75.20;;;;;;5039717;28;20468;-57
2022/07/09 09:52:05;;;;;;;1.70;1.60;;;26.80;77.80;;;;;;5039586;28;20718;-55
2022/07/09 09:54:34;;;;;;;2.13;1.30;;;26.40;79.30;;;;;;5039752;28;20439;-54
2022/07/09 09:57:08;;;;;;;2.23;1.70;;;26.10;80.20;;;;;;5039146;28;20434;-58
2022/07/09 09:59:39;;;;;;;3.67;2.13;;;25.80;82.40;;;;;;5039487;28;20405;-58
2022/07/09 10:02:09;;;;;;;5.57;2.40;;;25.70;83.40;;;;;;5039758;28;20424;-58
2022/07/09 10:04:38;;;;;;;1.93;1.80;;;25.00;83.90;;;;;;5039190;28;20445;-56
2022/07/09 10:07:08;;;;;;;2.10;1.67;;;24.80;85.70;;;;;;5021619;28;20445;-56
2022/07/09 10:09:35;;;;;;;2.23;1.93;;;24.80;86.20;;;;;;5039136;28;20503;-57
2022/07/09 10:12:03;;;;;;;1.60;1.50;;;24.80;85.00;;;;;;5039061;28;20450;-57
2022/07/09 10:14:34;;;;;;;2.23;1.80;;;24.70;85.30;;;;;;5039018;28;20408;-54
2022/07/09 10:17:14;;;;;;;2.80;2.23;;;24.70;86.20;;;;;;5038767;28;20467;-55
2022/07/09 10:20:05;;;;;;;1.93;1.83;;;24.60;87.20;;;;;;5039659;28;20470;-56
2022/07/09 10:22:40;;;;;;;2.83;2.63;;;24.60;89.70;;;;;;5030072;28;20797;-56
2022/07/09 10:25:13;;;;;;;2.13;1.93;;;24.70;90.20;;;;;;5038670;28;20761;-56
2022/07/09 10:27:47;;;;;;;1.97;1.87;;;24.40;90.30;;;;;;5038996;28;20764;-56
2022/07/09 10:30:27;;;;;;;2.40;2.20;;;24.40;91.40;;;;;;5038868;28;20400;-56
2022/07/09 10:33:11;;;;;;;2.07;1.87;;;24.40;91.50;;;;;;5038959;28;20432;-58
2022/07/09 10:35:43;;;;;;;5.50;2.13;;;24.70;91.90;;;;;;5038824;28;20504;-57
2022/07/09 10:38:12;;;;;;;1.80;1.70;;;24.60;91.40;;;;;;5039413;28;20648;-57
2022/07/09 10:40:44;;;;;;;2.20;1.80;;;24.60;91.80;;;;;;5038681;28;20673;-55
2022/07/09 10:43:12;;;;;;;1.70;1.60;;;24.70;90.50;;;;;;5038951;28;20446;-54
2022/07/09 10:45:41;;;;;;;2.43;1.77;;;24.70;91.00;;;;;;5038821;28;20465;-58
2022/07/09 10:48:11;;;;;;;2.50;1.77;;;24.60;90.70;;;;;;5038626;28;20439;-54
2022/07/09 10:50:44;;;;;;;2.27;2.07;;;24.60;90.60;;;;;;5039514;28;20424;-57
2022/07/09 10:53:11;;;;;;;1.80;1.70;;;24.70;90.30;;;;;;5041478;28;20416;-53
2022/07/09 10:55:46;;;;;;;2.17;1.90;;;24.80;89.40;;;;;;5042985;28;20433;-56
2022/07/09 10:58:19;;;;;;;2.17;2.07;;;24.60;90.60;;;;;;5042557;28;20408;-57
2022/07/09 11:01:02;;;;;;;2.10;2.00;;;24.50;91.30;;;;;;5042606;28;20451;-55
2022/07/09 11:03:32;;;;;;;2.63;2.43;;;24.50;90.90;;;;;;5042814;28;20424;-55
2022/07/09 11:05:59;;;;;;;2.13;1.97;;;24.40;91.00;;;;;;5025335;28;20447;-56
2022/07/09 11:08:26;;;;;;;2.40;2.20;;;24.20;92.00;;;;;;5042375;28;20514;-57
2022/07/09 11:10:54;;;;;;;2.33;2.23;;;24.40;92.60;;;;;;5042210;28;20654;-57
2022/07/09 11:13:25;;;;;;;8.83;2.60;;;24.50;91.80;;;;;;5042400;28;20427;-55
2022/07/09 11:16:00;;;;;;;2.30;2.10;;;24.60;92.30;;;;;;5042505;28;20443;-55
2022/07/09 11:18:28;;;;;;;2.80;2.33;;;24.80;92.10;;;;;;5042692;28;20436;-56
2022/07/09 11:20:56;;;;;;;3.40;2.60;;;24.70;91.70;;;;;;5042940;28;20511;-53
2022/07/09 11:23:23;;;;;;;2.30;2.10;;;24.80;91.40;;;;;;5042318;28;20470;-56
2022/07/09 11:25:51;;;;;;;2.10;1.90;;;24.70;90.60;;;;;;5042714;28;20454;-57
2022/07/09 11:28:22;;;;;;;2.13;1.93;;;24.90;92.00;;;;;;5042595;28;20403;-59
2022/07/09 11:31:00;;;;;;;2.53;2.13;;;25.30;92.20;;;;;;5043074;28;20718;-59
2022/07/09 11:34:10;;;;;;;3.83;2.87;;;25.50;91.20;;;;;;5042571;28;20419;-55
2022/07/09 11:36:17;;;;;;;2.30;2.10;;;25.60;91.70;;;;;;5042328;28;20412;-56
2022/07/09 11:39:02;;;;;;;3.40;1.93;;;25.90;91.00;;;;;;5042389;28;20412;-58
2022/07/09 11:41:43;;;;;;;3.80;2.20;;;26.20;90.20;;;;;;5042373;28;20613;-56
2022/07/09 11:44:18;;;;;;;2.20;1.83;;;26.00;89.30;;;;;;5042212;28;20429;-56
2022/07/09 11:46:56;;;;;;;2.83;2.03;;;26.10;90.00;;;;;;5042269;28;20522;-54
2022/07/09 11:49:32;;;;;;;2.43;2.00;;;26.10;90.00;;;;;;5042127;28;20769;-58
2022/07/09 11:52:00;;;;;;;1.73;1.63;;;26.20;88.60;;;;;;5024448;28;20416;-59
2022/07/09 11:54:28;;;;;;;1.97;1.70;;;26.00;88.20;;;;;;5041579;28;20415;-60
2022/07/09 11:56:55;;;;;;;3.23;2.33;;;25.60;90.50;;;;;;5042168;28;20416;-58
2022/07/09 11:59:33;;;;;;;2.67;1.70;;;25.50;91.40;;;;;;5041847;28;20413;-56
2022/07/09 12:02:02;;;;;;;2.20;2.00;;;25.70;90.30;;;;;;5042093;28;20420;-57
2022/07/09 12:04:30;;;;;;;1.97;1.57;;;25.90;89.40;;;;;;5041394;28;20416;-55
2022/07/09 12:06:58;;;;;;;2.43;2.23;;;26.00;90.50;;;;;;5042825;28;20490;-58
2022/07/09 12:09:32;;;;;;;1.63;1.53;;;26.20;89.60;;;;;;5044969;28;20407;-56
2022/07/09 12:12:00;;;;;;;5.27;1.93;;;26.40;88.60;;;;;;5046331;28;20448;-57
2022/07/09 12:14:27;;;;;;;6.40;2.00;;;26.20;86.10;;;;;;5047447;28;20410;-59
2022/07/09 12:16:56;;;;;;;1.57;1.40;;;25.80;86.00;;;;;;5047527;28;20640;-59
2022/07/09 12:19:23;;;;;;;2.07;1.30;;;25.70;86.70;;;;;;5047411;28;20437;-58
2022/07/09 12:21:51;;;;;;;2.17;2.07;;;25.20;86.80;;;;;;5047273;28;20488;-57
2022/07/09 12:24:24;;;;;;;4.10;1.90;;;25.00;87.80;;;;;;5026553;28;20440;-59
2022/07/09 12:26:52;;;;;;;2.03;1.83;;;24.90;89.20;;;;;;5041866;28;20836;-58
2022/07/09 12:29:39;;;;;;;2.50;2.30;;;24.80;90.70;;;;;;5041238;28;20422;-58
2022/07/09 12:32:06;;;;;;;2.30;1.70;;;24.90;91.20;;;;;;5040863;28;20810;-57
2022/07/09 12:34:34;;;;;;;2.20;2.10;;;25.10;91.10;;;;;;5040949;28;20409;-57
2022/07/09 12:37:05;;;;;;;2.23;1.90;;;24.80;91.20;;;;;;5041213;28;20400;-59
2022/07/09 12:39:33;;;;;;;2.17;1.90;;;24.50;92.60;;;;;;5040827;28;20511;-58
2022/07/09 12:42:01;;;;;;;2.57;2.33;;;24.20;92.70;;;;;;5040781;28;20449;-56
2022/07/09 12:44:28;;;;;;;3.10;2.00;;;24.20;93.20;;;;;;5041680;28;20404;-57
2022/07/09 12:46:55;;;;;;;2.40;2.30;;;24.10;93.50;;;;;;5040857;28;20553;-56
2022/07/09 12:49:23;;;;;;;2.03;1.83;;;23.90;94.00;;;;;;5041257;28;20428;-56
2022/07/09 12:51:50;;;;;;;5.70;3.53;;;23.90;94.20;;;;;;5041276;28;20614;-58
2022/07/09 12:54:17;;;;;;;2.47;2.13;;;23.90;94.20;;;;;;5041907;28;20400;-54